sensor_id;sensor_type;location;lat;lon;timestamp;pressure;altitude;pressure_sealevel;temperature;humidity
32243;BME280;18731;42.830;24.390;2023-08-20T03:01:28;94826.63;;;16.70;84.59
32243;BME280;18731;42.830;24.390;2023-08-20T03:03:54;94839.63;;;16.88;84.52
32243;BME280;18731;42.830;24.390;2023-08-20T03:06:20;94831.84;;;16.83;84.99
32243;BME280;18731;42.830;24.390;2023-08-20T03:08:46;94842.69;;;16.86;85.08
32243;BME280;18731;42.830;24.390;2023-08-20T03:11:11;94849.22;;;16.85;84.74
32243;BME280;18731;42.830;24.390;2023-08-20T03:13:37;94848.88;;;16.87;85.15
32243;BME280;18731;42.830;24.390;2023-08-20T03:16:03;94841.63;;;16.91;84.12
32243;BME280;18731;42.830;24.390;2023-08-20T03:18:29;94853.53;;;16.90;83.82
32243;BME280;18731;42.830;24.390;2023-08-20T03:20:55;94854.38;;;16.94;83.75
32243;BME280;18731;42.830;24.390;2023-08-20T03:23:22;94854.44;;;16.97;83.22
32243;BME280;18731;42.830;24.390;2023-08-20T03:25:48;94857.91;;;16.98;82.56
32243;BME280;18731;42.830;24.390;2023-08-20T03:28:14;94845.81;;;16.88;82.92
32243;BME280;18731;42.830;24.390;2023-08-20T03:30:40;94859.53;;;16.80;83.24
32243;BME280;18731;42.830;24.390;2023-08-20T03:33:06;94858.16;;;16.89;83.13
32243;BME280;18731;42.830;24.390;2023-08-20T03:35:31;94857.44;;;16.92;83.05
32243;BME280;18731;42.830;24.390;2023-08-20T03:37:57;94868.56;;;16.91;83.05
32243;BME280;18731;42.830;24.390;2023-08-20T03:40:23;94869.78;;;16.93;82.76
32243;BME280;18731;42.830;24.390;2023-08-20T03:42:49;94861.34;;;16.95;82.46
32243;BME280;18731;42.830;24.390;2023-08-20T03:45:14;94862.47;;;16.94;82.68
32243;BME280;18731;42.830;24.390;2023-08-20T03:47:40;94866.19;;;16.86;82.68
32243;BME280;18731;42.830;24.390;2023-08-20T03:50:09;94865.97;;;16.75;84.12
32243;BME280;18731;42.830;24.390;2023-08-20T03:52:35;94865.84;;;16.68;85.08
32243;BME280;18731;42.830;24.390;2023-08-20T03:55:02;94861.38;;;16.76;84.71
32243;BME280;18731;42.830;24.390;2023-08-20T03:57:28;94865.03;;;16.87;84.26
32243;BME280;18731;42.830;24.390;2023-08-20T03:59:53;94872.28;;;16.83;83.96
32243;BME280;18731;42.830;24.390;2023-08-20T04:02:19;94862.34;;;16.87;83.96
32243;BME280;18731;42.830;24.390;2023-08-20T04:04:45;94871.63;;;16.89;84.04
32243;BME280;18731;42.830;24.390;2023-08-20T04:07:10;94867.44;;;16.92;83.75
32243;BME280;18731;42.830;24.390;2023-08-20T04:09:36;94872.47;;;16.93;83.70
32243;BME280;18731;42.830;24.390;2023-08-20T04:12:05;94867.56;;;16.99;83.33
32243;BME280;18731;42.830;24.390;2023-08-20T04:14:31;94874.94;;;17.02;83.47
32243;BME280;18731;42.830;24.390;2023-08-20T04:16:56;94867.16;;;16.97;84.32
32243;BME280;18731;42.830;24.390;2023-08-20T04:19:22;94872.13;;;16.95;85.11
32243;BME280;18731;42.830;24.390;2023-08-20T04:21:48;94866.50;;;17.03;84.82
32243;BME280;18731;42.830;24.390;2023-08-20T04:24:13;94869.66;;;17.09;84.37
32243;BME280;18731;42.830;24.390;2023-08-20T04:26:39;94874.03;;;17.17;84.04
32243;BME280;18731;42.830;24.390;2023-08-20T04:29:05;94867.94;;;17.20;84.05
32243;BME280;18731;42.830;24.390;2023-08-20T04:31:31;94874.94;;;17.25;84.03
32243;BME280;18731;42.830;24.390;2023-08-20T04:33:57;94864.31;;;17.35;83.69
32243;BME280;18731;42.830;24.390;2023-08-20T04:36:22;94868.31;;;17.45;83.36
32243;BME280;18731;42.830;24.390;2023-08-20T04:38:48;94861.44;;;17.48;83.56
32243;BME280;18731;42.830;24.390;2023-08-20T04:41:14;94849.78;;;17.44;83.09
32243;BME280;18731;42.830;24.390;2023-08-20T04:43:39;94859.88;;;17.47;83.05
32243;BME280;18731;42.830;24.390;2023-08-20T04:46:05;94866.81;;;17.48;83.10
32243;BME280;18731;42.830;24.390;2023-08-20T04:48:30;94862.72;;;17.57;82.82
32243;BME280;18731;42.830;24.390;2023-08-20T04:50:56;94859.31;;;17.60;82.67
32243;BME280;18731;42.830;24.390;2023-08-20T04:53:22;94860.94;;;17.42;83.57
32243;BME280;18731;42.830;24.390;2023-08-20T04:55:48;94862.88;;;17.42;84.25
32243;BME280;18731;42.830;24.390;2023-08-20T04:58:13;94860.75;;;17.54;83.58
32243;BME280;18731;42.830;24.390;2023-08-20T05:00:39;94846.91;;;17.56;83.57
32243;BME280;18731;42.830;24.390;2023-08-20T05:03:05;94857.94;;;17.70;83.19
32243;BME280;18731;42.830;24.390;2023-08-20T05:05:30;94858.72;;;17.71;82.93
32243;BME280;18731;42.830;24.390;2023-08-20T05:07:56;94865.72;;;17.75;82.61
32243;BME280;18731;42.830;24.390;2023-08-20T05:10:22;94861.97;;;17.83;82.49
32243;BME280;18731;42.830;24.390;2023-08-20T05:12:47;94869.84;;;17.95;82.55
32243;BME280;18731;42.830;24.390;2023-08-20T05:15:13;94859.97;;;18.07;82.86
32243;BME280;18731;42.830;24.390;2023-08-20T05:17:40;94857.28;;;18.07;83.03
32243;BME280;18731;42.830;24.390;2023-08-20T05:20:06;94859.34;;;18.17;83.09
32243;BME280;18731;42.830;24.390;2023-08-20T05:22:32;94871.63;;;18.41;82.56
32243;BME280;18731;42.830;24.390;2023-08-20T05:24:57;94881.00;;;18.50;82.06
32243;BME280;18731;42.830;24.390;2023-08-20T05:27:23;94856.03;;;18.60;81.30
32243;BME280;18731;42.830;24.390;2023-08-20T05:29:48;94880.34;;;18.94;81.07
32243;BME280;18731;42.830;24.390;2023-08-20T05:32:14;94884.81;;;19.16;79.73
32243;BME280;18731;42.830;24.390;2023-08-20T05:34:42;94881.03;;;19.24;78.76
32243;BME280;18731;42.830;24.390;2023-08-20T05:37:07;94869.91;;;19.37;78.28
32243;BME280;18731;42.830;24.390;2023-08-20T05:39:41;94882.56;;;19.66;77.54
32243;BME280;18731;42.830;24.390;2023-08-20T05:42:07;94881.91;;;19.83;76.39
32243;BME280;18731;42.830;24.390;2023-08-20T05:44:32;94887.81;;;20.00;75.57
32243;BME280;18731;42.830;24.390;2023-08-20T05:46:58;94876.25;;;20.10;75.15
32243;BME280;18731;42.830;24.390;2023-08-20T05:49:24;94886.81;;;20.29;75.11
32243;BME280;18731;42.830;24.390;2023-08-20T05:51:50;94885.41;;;20.53;74.79
32243;BME280;18731;42.830;24.390;2023-08-20T05:54:15;94887.09;;;20.82;74.16
32243;BME280;18731;42.830;24.390;2023-08-20T05:56:41;94884.03;;;21.05;73.09
32243;BME280;18731;42.830;24.390;2023-08-20T05:59:07;94868.53;;;21.06;72.49
32243;BME280;18731;42.830;24.390;2023-08-20T06:01:32;94865.50;;;21.39;72.01
32243;BME280;18731;42.830;24.390;2023-08-20T06:03:58;94870.53;;;21.55;71.00
32243;BME280;18731;42.830;24.390;2023-08-20T06:06:26;94880.22;;;21.81;69.61
32243;BME280;18731;42.830;24.390;2023-08-20T06:08:51;94877.09;;;22.04;69.68
32243;BME280;18731;42.830;24.390;2023-08-20T06:11:17;94872.38;;;22.29;68.69
32243;BME280;18731;42.830;24.390;2023-08-20T06:13:43;94877.38;;;22.49;68.53
32243;BME280;18731;42.830;24.390;2023-08-20T06:16:09;94871.84;;;22.70;67.96
32243;BME280;18731;42.830;24.390;2023-08-20T06:18:34;94870.59;;;22.92;67.38
32243;BME280;18731;42.830;24.390;2023-08-20T06:21:00;94874.31;;;23.20;66.39
32243;BME280;18731;42.830;24.390;2023-08-20T06:23:26;94854.34;;;23.37;66.39
32243;BME280;18731;42.830;24.390;2023-08-20T06:25:51;94870.91;;;23.67;65.13
32243;BME280;18731;42.830;24.390;2023-08-20T06:28:17;94872.22;;;23.93;64.63
32243;BME280;18731;42.830;24.390;2023-08-20T06:30:44;94865.78;;;24.14;62.79
32243;BME280;18731;42.830;24.390;2023-08-20T06:33:10;94870.22;;;24.39;62.97
32243;BME280;18731;42.830;24.390;2023-08-20T06:35:37;94862.88;;;24.66;61.26
32243;BME280;18731;42.830;24.390;2023-08-20T06:38:03;94859.50;;;24.85;61.62
32243;BME280;18731;42.830;24.390;2023-08-20T06:40:29;94867.91;;;25.02;61.68
32243;BME280;18731;42.830;24.390;2023-08-20T06:42:55;94861.66;;;25.28;59.88
32243;BME280;18731;42.830;24.390;2023-08-20T06:45:21;94864.78;;;25.53;58.16
32243;BME280;18731;42.830;24.390;2023-08-20T06:47:47;94868.41;;;25.74;60.50
32243;BME280;18731;42.830;24.390;2023-08-20T06:50:12;94866.19;;;25.88;61.02
32243;BME280;18731;42.830;24.390;2023-08-20T06:52:38;94865.91;;;26.06;56.56
32243;BME280;18731;42.830;24.390;2023-08-20T06:55:04;94861.00;;;26.41;58.03
32243;BME280;18731;42.830;24.390;2023-08-20T06:57:30;94863.66;;;26.64;55.96
32243;BME280;18731;42.830;24.390;2023-08-20T06:59:57;94862.94;;;27.00;54.33
32243;BME280;18731;42.830;24.390;2023-08-20T07:02:22;94864.19;;;27.15;55.45
32243;BME280;18731;42.830;24.390;2023-08-20T07:04:48;94861.28;;;27.38;51.41
32243;BME280;18731;42.830;24.390;2023-08-20T07:07:14;94862.50;;;27.53;48.14
32243;BME280;18731;42.830;24.390;2023-08-20T07:09:40;94862.88;;;27.72;45.59
32243;BME280;18731;42.830;24.390;2023-08-20T07:12:06;94862.59;;;27.99;44.64
32243;BME280;18731;42.830;24.390;2023-08-20T07:14:32;94861.44;;;28.29;42.97
32243;BME280;18731;42.830;24.390;2023-08-20T07:16:59;94858.78;;;28.54;44.99
32243;BME280;18731;42.830;24.390;2023-08-20T07:19:25;94863.16;;;28.80;44.86
32243;BME280;18731;42.830;24.390;2023-08-20T07:21:51;94862.81;;;29.07;42.84
32243;BME280;18731;42.830;24.390;2023-08-20T07:24:16;94855.00;;;29.19;40.34
32243;BME280;18731;42.830;24.390;2023-08-20T07:26:42;94855.22;;;29.24;39.65
32243;BME280;18731;42.830;24.390;2023-08-20T07:29:09;94847.41;;;29.35;40.22
32243;BME280;18731;42.830;24.390;2023-08-20T07:31:35;94855.91;;;29.54;39.11
32243;BME280;18731;42.830;24.390;2023-08-20T07:34:03;94855.13;;;29.66;38.60
32243;BME280;18731;42.830;24.390;2023-08-20T07:36:29;94855.09;;;29.79;39.30
32243;BME280;18731;42.830;24.390;2023-08-20T07:38:55;94843.22;;;29.69;38.11
32243;BME280;18731;42.830;24.390;2023-08-20T07:41:21;94860.16;;;29.80;37.74
32243;BME280;18731;42.830;24.390;2023-08-20T07:43:48;94859.69;;;29.94;37.28
32243;BME280;18731;42.830;24.390;2023-08-20T07:46:15;94856.28;;;30.03;37.58
32243;BME280;18731;42.830;24.390;2023-08-20T07:48:41;94856.63;;;29.92;36.85
32243;BME280;18731;42.830;24.390;2023-08-20T07:51:07;94856.16;;;29.94;36.58
32243;BME280;18731;42.830;24.390;2023-08-20T07:53:33;94849.44;;;29.95;35.71
32243;BME280;18731;42.830;24.390;2023-08-20T07:56:00;94852.03;;;30.24;35.27
32243;BME280;18731;42.830;24.390;2023-08-20T07:58:27;94854.59;;;30.40;35.70
32243;BME280;18731;42.830;24.390;2023-08-20T08:00:54;94855.81;;;30.39;35.71
32243;BME280;18731;42.830;24.390;2023-08-20T08:03:20;94855.19;;;30.57;36.97
32243;BME280;18731;42.830;24.390;2023-08-20T08:05:50;94851.78;;;30.53;34.60
32243;BME280;18731;42.830;24.390;2023-08-20T08:08:16;94854.56;;;30.75;35.82
32243;BME280;18731;42.830;24.390;2023-08-20T08:10:43;94857.38;;;30.84;33.48
32243;BME280;18731;42.830;24.390;2023-08-20T08:13:11;94859.03;;;31.03;34.63
32243;BME280;18731;42.830;24.390;2023-08-20T08:15:37;94852.44;;;31.22;33.34
32243;BME280;18731;42.830;24.390;2023-08-20T08:18:04;94848.25;;;31.49;32.98
32243;BME280;18731;42.830;24.390;2023-08-20T08:20:30;94853.31;;;31.50;32.39
32243;BME280;18731;42.830;24.390;2023-08-20T08:22:55;94857.78;;;31.57;31.63
32243;BME280;18731;42.830;24.390;2023-08-20T08:25:21;94846.75;;;31.57;31.17
32243;BME280;18731;42.830;24.390;2023-08-20T08:27:47;94852.94;;;31.70;30.27
32243;BME280;18731;42.830;24.390;2023-08-20T08:30:14;94852.81;;;31.74;31.35
32243;BME280;18731;42.830;24.390;2023-08-20T08:32:40;94856.97;;;31.87;29.68
32243;BME280;18731;42.830;24.390;2023-08-20T08:35:07;94857.97;;;32.30;31.88
32243;BME280;18731;42.830;24.390;2023-08-20T08:37:32;94850.44;;;32.40;28.74
32243;BME280;18731;42.830;24.390;2023-08-20T08:39:58;94856.97;;;31.96;28.36
32243;BME280;18731;42.830;24.390;2023-08-20T08:42:24;94855.00;;;32.06;29.09
32243;BME280;18731;42.830;24.390;2023-08-20T08:44:51;94860.72;;;32.30;28.83
32243;BME280;18731;42.830;24.390;2023-08-20T08:47:18;94851.50;;;32.51;28.99
32243;BME280;18731;42.830;24.390;2023-08-20T08:49:45;94850.75;;;32.51;29.66
32243;BME280;18731;42.830;24.390;2023-08-20T08:52:13;94850.44;;;32.67;29.65
32243;BME280;18731;42.830;24.390;2023-08-20T08:54:39;94852.09;;;32.92;28.24
32243;BME280;18731;42.830;24.390;2023-08-20T08:57:05;94843.19;;;32.97;27.50
32243;BME280;18731;42.830;24.390;2023-08-20T08:59:31;94836.66;;;33.18;27.78
32243;BME280;18731;42.830;24.390;2023-08-20T09:01:57;94848.50;;;33.19;27.35
32243;BME280;18731;42.830;24.390;2023-08-20T09:04:23;94846.09;;;33.03;29.18
32243;BME280;18731;42.830;24.390;2023-08-20T09:06:51;94849.72;;;33.18;27.46
32243;BME280;18731;42.830;24.390;2023-08-20T09:09:18;94841.72;;;33.20;27.17
32243;BME280;18731;42.830;24.390;2023-08-20T09:11:44;94844.75;;;32.80;27.99
32243;BME280;18731;42.830;24.390;2023-08-20T09:14:27;94843.84;;;32.28;28.26
32243;BME280;18731;42.830;24.390;2023-08-20T09:16:59;94844.59;;;32.47;31.01
32243;BME280;18731;42.830;24.390;2023-08-20T09:19:28;94840.16;;;32.77;29.76
32243;BME280;18731;42.830;24.390;2023-08-20T09:21:54;94843.81;;;32.92;28.92
32243;BME280;18731;42.830;24.390;2023-08-20T09:24:52;94838.78;;;32.54;31.01
32243;BME280;18731;42.830;24.390;2023-08-20T09:27:17;94846.59;;;32.46;27.05
32243;BME280;18731;42.830;24.390;2023-08-20T09:29:51;94849.97;;;32.50;29.48
32243;BME280;18731;42.830;24.390;2023-08-20T09:32:19;94841.06;;;32.65;28.50
32243;BME280;18731;42.830;24.390;2023-08-20T09:34:46;94845.84;;;32.55;28.49
32243;BME280;18731;42.830;24.390;2023-08-20T09:37:14;94846.28;;;32.81;29.37
32243;BME280;18731;42.830;24.390;2023-08-20T09:39:40;94843.81;;;32.83;28.88
32243;BME280;18731;42.830;24.390;2023-08-20T09:42:08;94839.81;;;32.84;28.28
32243;BME280;18731;42.830;24.390;2023-08-20T09:44:41;94833.22;;;32.63;30.26
32243;BME280;18731;42.830;24.390;2023-08-20T09:49:42;94839.25;;;32.43;28.87
32243;BME280;18731;42.830;24.390;2023-08-20T09:52:12;94833.72;;;32.43;29.08
32243;BME280;18731;42.830;24.390;2023-08-20T09:55:00;94843.84;;;32.37;30.61
32243;BME280;18731;42.830;24.390;2023-08-20T09:57:37;94846.31;;;32.35;29.35
32243;BME280;18731;42.830;24.390;2023-08-20T10:00:05;94841.25;;;32.24;29.94
32243;BME280;18731;42.830;24.390;2023-08-20T10:02:31;94841.97;;;32.16;29.35
32243;BME280;18731;42.830;24.390;2023-08-20T10:04:59;94847.34;;;32.19;30.33
32243;BME280;18731;42.830;24.390;2023-08-20T10:07:29;94843.22;;;32.33;29.77
32243;BME280;18731;42.830;24.390;2023-08-20T10:09:59;94833.09;;;32.39;29.10
32243;BME280;18731;42.830;24.390;2023-08-20T10:12:30;94836.75;;;32.64;29.31
32243;BME280;18731;42.830;24.390;2023-08-20T10:14:57;94843.78;;;33.01;31.42
32243;BME280;18731;42.830;24.390;2023-08-20T10:17:23;94833.66;;;32.89;29.81
32243;BME280;18731;42.830;24.390;2023-08-20T10:19:53;94842.72;;;32.89;30.24
32243;BME280;18731;42.830;24.390;2023-08-20T10:22:19;94838.13;;;32.86;29.05
32243;BME280;18731;42.830;24.390;2023-08-20T10:24:52;94820.50;;;32.56;30.96
32243;BME280;18731;42.830;24.390;2023-08-20T10:27:26;94843.31;;;31.44;31.25
32243;BME280;18731;42.830;24.390;2023-08-20T10:29:55;94834.91;;;31.16;31.51
32243;BME280;18731;42.830;24.390;2023-08-20T10:32:47;94833.09;;;31.53;31.78
32243;BME280;18731;42.830;24.390;2023-08-20T10:35:18;94835.50;;;31.82;30.86
32243;BME280;18731;42.830;24.390;2023-08-20T10:38:03;94829.91;;;31.64;30.87
32243;BME280;18731;42.830;24.390;2023-08-20T10:46:10;94833.38;;;32.69;30.76
32243;BME280;18731;42.830;24.390;2023-08-20T10:48:39;94828.94;;;32.80;30.65
32243;BME280;18731;42.830;24.390;2023-08-20T10:51:39;94832.91;;;32.88;30.14
32243;BME280;18731;42.830;24.390;2023-08-20T10:54:07;94823.94;;;33.12;30.35
32243;BME280;18731;42.830;24.390;2023-08-20T10:56:48;94837.25;;;33.22;28.95
32243;BME280;18731;42.830;24.390;2023-08-20T10:59:21;94826.66;;;32.51;29.95
32243;BME280;18731;42.830;24.390;2023-08-20T11:01:48;94823.41;;;32.53;31.19
32243;BME280;18731;42.830;24.390;2023-08-20T11:04:19;94834.78;;;32.55;31.28
32243;BME280;18731;42.830;24.390;2023-08-20T11:06:46;94814.81;;;32.60;30.12
32243;BME280;18731;42.830;24.390;2023-08-20T11:09:12;94808.97;;;32.67;30.97
32243;BME280;18731;42.830;24.390;2023-08-20T11:11:39;94813.19;;;33.05;30.87
32243;BME280;18731;42.830;24.390;2023-08-20T11:14:13;94814.44;;;33.46;29.77
32243;BME280;18731;42.830;24.390;2023-08-20T11:16:40;94814.19;;;33.25;29.97
32243;BME280;18731;42.830;24.390;2023-08-20T11:19:05;94794.94;;;32.98;29.99
32243;BME280;18731;42.830;24.390;2023-08-20T11:21:35;94805.44;;;33.27;29.68
32243;BME280;18731;42.830;24.390;2023-08-20T11:24:01;94808.75;;;33.82;31.35
32243;BME280;18731;42.830;24.390;2023-08-20T11:26:27;94792.66;;;33.39;29.90
32243;BME280;18731;42.830;24.390;2023-08-20T11:28:53;94801.44;;;33.28;29.71
32243;BME280;18731;42.830;24.390;2023-08-20T11:31:19;94799.75;;;33.31;29.32
32243;BME280;18731;42.830;24.390;2023-08-20T11:33:44;94800.00;;;33.42;29.75
32243;BME280;18731;42.830;24.390;2023-08-20T11:36:10;94803.13;;;33.25;29.07
32243;BME280;18731;42.830;24.390;2023-08-20T11:38:36;94805.22;;;33.82;29.30
32243;BME280;18731;42.830;24.390;2023-08-20T11:41:02;94788.59;;;33.82;29.19
32243;BME280;18731;42.830;24.390;2023-08-20T11:43:28;94796.78;;;34.00;29.21
32243;BME280;18731;42.830;24.390;2023-08-20T11:45:54;94779.41;;;34.38;28.84
32243;BME280;18731;42.830;24.390;2023-08-20T11:48:21;94789.78;;;34.82;28.38
32243;BME280;18731;42.830;24.390;2023-08-20T11:50:47;94791.38;;;35.18;27.49
32243;BME280;18731;42.830;24.390;2023-08-20T11:53:13;94781.91;;;35.10;27.32
32243;BME280;18731;42.830;24.390;2023-08-20T11:55:40;94782.94;;;35.27;27.03
32243;BME280;18731;42.830;24.390;2023-08-20T11:58:09;94778.38;;;35.59;26.26
32243;BME280;18731;42.830;24.390;2023-08-20T12:00:36;94766.81;;;35.81;27.50
32243;BME280;18731;42.830;24.390;2023-08-20T12:03:02;94775.56;;;35.94;25.58
32243;BME280;18731;42.830;24.390;2023-08-20T12:05:29;94780.38;;;35.94;26.00
32243;BME280;18731;42.830;24.390;2023-08-20T12:08:02;94765.25;;;34.36;27.19
32243;BME280;18731;42.830;24.390;2023-08-20T12:10:30;94785.03;;;34.05;28.16
32243;BME280;18731;42.830;24.390;2023-08-20T12:12:56;94772.69;;;33.35;28.56
32243;BME280;18731;42.830;24.390;2023-08-20T12:15:23;94758.41;;;33.27;29.07
32243;BME280;18731;42.830;24.390;2023-08-20T12:18:01;94756.88;;;33.59;30.20
32243;BME280;18731;42.830;24.390;2023-08-20T12:20:29;94773.22;;;33.81;28.78
32243;BME280;18731;42.830;24.390;2023-08-20T12:22:59;94766.72;;;34.08;28.72
32243;BME280;18731;42.830;24.390;2023-08-20T12:25:29;94770.94;;;33.70;27.93
32243;BME280;18731;42.830;24.390;2023-08-20T12:27:55;94758.31;;;33.45;28.15
32243;BME280;18731;42.830;24.390;2023-08-20T12:30:21;94761.31;;;33.90;28.07
32243;BME280;18731;42.830;24.390;2023-08-20T12:32:47;94758.03;;;34.15;27.14
32243;BME280;18731;42.830;24.390;2023-08-20T12:35:13;94753.19;;;34.25;28.15
32243;BME280;18731;42.830;24.390;2023-08-20T12:37:39;94758.84;;;33.92;27.92
32243;BME280;18731;42.830;24.390;2023-08-20T12:40:05;94758.84;;;33.92;27.76
32243;BME280;18731;42.830;24.390;2023-08-20T12:42:38;94750.16;;;33.99;27.90
32243;BME280;18731;42.830;24.390;2023-08-20T12:45:08;94761.22;;;33.75;27.81
32243;BME280;18731;42.830;24.390;2023-08-20T12:47:34;94753.56;;;33.70;27.94
32243;BME280;18731;42.830;24.390;2023-08-20T12:50:00;94749.06;;;33.81;28.28
32243;BME280;18731;42.830;24.390;2023-08-20T12:52:26;94755.44;;;34.11;29.33
32243;BME280;18731;42.830;24.390;2023-08-20T12:54:52;94742.16;;;34.39;29.65
32243;BME280;18731;42.830;24.390;2023-08-20T12:57:18;94738.91;;;34.41;27.62
32243;BME280;18731;42.830;24.390;2023-08-20T12:59:43;94740.34;;;33.98;27.89
32243;BME280;18731;42.830;24.390;2023-08-20T13:02:10;94739.84;;;33.75;28.55
32243;BME280;18731;42.830;24.390;2023-08-20T13:04:36;94749.94;;;33.88;28.05
32243;BME280;18731;42.830;24.390;2023-08-20T13:07:03;94743.19;;;33.79;28.41
32243;BME280;18731;42.830;24.390;2023-08-20T13:09:29;94745.53;;;33.81;28.75
32243;BME280;18731;42.830;24.390;2023-08-20T13:11:57;94756.38;;;33.94;27.66
32243;BME280;18731;42.830;24.390;2023-08-20T13:14:23;94753.53;;;34.03;28.21
32243;BME280;18731;42.830;24.390;2023-08-20T13:16:49;94741.50;;;34.06;28.11
32243;BME280;18731;42.830;24.390;2023-08-20T13:19:15;94735.56;;;33.98;27.86
32243;BME280;18731;42.830;24.390;2023-08-20T13:21:41;94714.25;;;33.80;27.36
32243;BME280;18731;42.830;24.390;2023-08-20T13:24:07;94728.69;;;34.08;27.35
32243;BME280;18731;42.830;24.390;2023-08-20T13:26:34;94729.91;;;33.93;27.42
32243;BME280;18731;42.830;24.390;2023-08-20T13:29:00;94726.72;;;33.61;28.10
32243;BME280;18731;42.830;24.390;2023-08-20T13:31:25;94725.28;;;33.42;27.88
32243;BME280;18731;42.830;24.390;2023-08-20T13:33:51;94713.38;;;33.27;27.25
32243;BME280;18731;42.830;24.390;2023-08-20T13:36:18;94717.13;;;33.14;28.63
32243;BME280;18731;42.830;24.390;2023-08-20T13:38:44;94710.63;;;32.93;28.37
32243;BME280;18731;42.830;24.390;2023-08-20T13:41:10;94721.28;;;32.77;29.72
32243;BME280;18731;42.830;24.390;2023-08-20T13:43:36;94727.25;;;32.75;29.64
32243;BME280;18731;42.830;24.390;2023-08-20T13:46:01;94711.22;;;32.46;29.56
32243;BME280;18731;42.830;24.390;2023-08-20T13:48:27;94723.72;;;32.84;29.68
32243;BME280;18731;42.830;24.390;2023-08-20T13:50:53;94714.78;;;33.22;29.49
32243;BME280;18731;42.830;24.390;2023-08-20T13:53:18;94722.66;;;33.47;29.78
32243;BME280;18731;42.830;24.390;2023-08-20T13:55:44;94718.28;;;33.79;29.16
32243;BME280;18731;42.830;24.390;2023-08-20T13:58:10;94723.72;;;33.98;28.80
32243;BME280;18731;42.830;24.390;2023-08-20T14:00:36;94721.78;;;33.89;28.33
32243;BME280;18731;42.830;24.390;2023-08-20T14:03:01;94725.53;;;33.53;29.46
32243;BME280;18731;42.830;24.390;2023-08-20T14:05:27;94721.47;;;33.63;28.64
32243;BME280;18731;42.830;24.390;2023-08-20T14:07:54;94726.94;;;33.48;28.93
32243;BME280;18731;42.830;24.390;2023-08-20T14:10:20;94711.53;;;33.23;29.69
32243;BME280;18731;42.830;24.390;2023-08-20T14:12:46;94714.88;;;33.37;30.05
32243;BME280;18731;42.830;24.390;2023-08-20T14:15:11;94714.72;;;33.07;30.74
32243;BME280;18731;42.830;24.390;2023-08-20T14:17:37;94723.97;;;32.95;29.62
32243;BME280;18731;42.830;24.390;2023-08-20T14:20:04;94713.84;;;32.92;29.19
32243;BME280;18731;42.830;24.390;2023-08-20T14:22:30;94718.66;;;32.73;29.77
32243;BME280;18731;42.830;24.390;2023-08-20T14:24:56;94717.91;;;32.73;30.58
32243;BME280;18731;42.830;24.390;2023-08-20T14:27:21;94720.88;;;32.51;31.46
32243;BME280;18731;42.830;24.390;2023-08-20T14:29:48;94713.63;;;32.63;29.88
32243;BME280;18731;42.830;24.390;2023-08-20T14:32:13;94722.28;;;32.46;31.21
32243;BME280;18731;42.830;24.390;2023-08-20T14:34:39;94713.41;;;32.33;31.17
32243;BME280;18731;42.830;24.390;2023-08-20T14:37:05;94725.63;;;32.50;32.69
32243;BME280;18731;42.830;24.390;2023-08-20T14:39:31;94722.63;;;32.30;30.69
32243;BME280;18731;42.830;24.390;2023-08-20T14:41:58;94726.47;;;32.23;32.46
32243;BME280;18731;42.830;24.390;2023-08-20T14:44:24;94733.66;;;32.30;31.62
32243;BME280;18731;42.830;24.390;2023-08-20T14:46:50;94727.84;;;32.28;31.75
32243;BME280;18731;42.830;24.390;2023-08-20T14:49:16;94735.81;;;31.98;33.03
32243;BME280;18731;42.830;24.390;2023-08-20T14:51:43;94730.91;;;32.12;31.95
32243;BME280;18731;42.830;24.390;2023-08-20T14:54:10;94731.81;;;32.00;32.90
32243;BME280;18731;42.830;24.390;2023-08-20T14:56:37;94728.75;;;31.88;32.17
32243;BME280;18731;42.830;24.390;2023-08-20T14:59:02;94729.38;;;31.92;32.80
32243;BME280;18731;42.830;24.390;2023-08-20T15:01:29;94731.22;;;32.05;32.92
32243;BME280;18731;42.830;24.390;2023-08-20T15:03:55;94733.97;;;31.77;34.29
32243;BME280;18731;42.830;24.390;2023-08-20T15:06:20;94740.41;;;31.83;35.04
32243;BME280;18731;42.830;24.390;2023-08-20T15:08:49;94731.38;;;31.92;33.84
32243;BME280;18731;42.830;24.390;2023-08-20T15:11:14;94732.44;;;31.76;33.70
32243;BME280;18731;42.830;24.390;2023-08-20T15:13:40;94731.53;;;31.70;35.98
32243;BME280;18731;42.830;24.390;2023-08-20T15:16:05;94722.25;;;31.37;36.74
32243;BME280;18731;42.830;24.390;2023-08-20T15:18:31;94736.03;;;31.37;37.41
32243;BME280;18731;42.830;24.390;2023-08-20T15:20:58;94736.53;;;31.13;37.81
32243;BME280;18731;42.830;24.390;2023-08-20T15:23:25;94740.16;;;31.01;37.97
32243;BME280;18731;42.830;24.390;2023-08-20T15:25:52;94740.44;;;30.94;35.84
32243;BME280;18731;42.830;24.390;2023-08-20T15:28:24;94742.94;;;31.01;39.14
32243;BME280;18731;42.830;24.390;2023-08-20T15:30:51;94744.91;;;31.00;40.11
32243;BME280;18731;42.830;24.390;2023-08-20T15:33:18;94739.13;;;31.08;40.97
32243;BME280;18731;42.830;24.390;2023-08-20T15:35:43;94742.00;;;30.95;39.65
32243;BME280;18731;42.830;24.390;2023-08-20T15:38:09;94740.66;;;30.68;39.19
32243;BME280;18731;42.830;24.390;2023-08-20T15:40:37;94742.47;;;30.62;41.60
32243;BME280;18731;42.830;24.390;2023-08-20T15:43:03;94741.94;;;30.33;40.73
32243;BME280;18731;42.830;24.390;2023-08-20T15:45:29;94741.00;;;30.27;41.95
32243;BME280;18731;42.830;24.390;2023-08-20T15:47:54;94743.63;;;30.08;40.17
32243;BME280;18731;42.830;24.390;2023-08-20T15:50:20;94742.44;;;29.97;42.17
32243;BME280;18731;42.830;24.390;2023-08-20T15:52:46;94746.22;;;29.90;42.50
32243;BME280;18731;42.830;24.390;2023-08-20T15:55:13;94736.28;;;29.71;42.57
32243;BME280;18731;42.830;24.390;2023-08-20T15:57:39;94736.66;;;29.48;43.12